sensor_id;sensor_type;location;lat;lon;timestamp;P1;durP1;ratioP1;P2;durP2;ratioP2
4424;SDS011;2225;53.568;13.266;2023-01-01T00:02:35;22.40;;;11.40;;
4424;SDS011;2225;53.568;13.266;2023-01-01T00:05:03;30.73;;;11.67;;
4424;SDS011;2225;53.568;13.266;2023-01-01T00:07:31;14.27;;;5.80;;
4424;SDS011;2225;53.568;13.266;2023-01-01T00:09:58;17.63;;;6.57;;
4424;SDS011;2225;53.568;13.266;2023-01-01T00:12:44;17.10;;;5.47;;
4424;SDS011;2225;53.568;13.266;2023-01-01T00:15:10;15.73;;;4.93;;
4424;SDS011;2225;53.568;13.266;2023-01-01T00:17:37;13.50;;;5.53;;
4424;SDS011;2225;53.568;13.266;2023-01-01T00:20:04;19.43;;;4.53;;
4424;SDS011;2225;53.568;13.266;2023-01-01T00:22:33;12.63;;;4.53;;
4424;SDS011;2225;53.568;13.266;2023-01-01T00:25:19;17.50;;;4.70;;
4424;SDS011;2225;53.568;13.266;2023-01-01T00:27:46;14.37;;;4.47;;
4424;SDS011;2225;53.568;13.266;2023-01-01T00:30:13;12.77;;;3.40;;
4424;SDS011;2225;53.568;13.266;2023-01-01T00:32:40;12.40;;;4.90;;
4424;SDS011;2225;53.568;13.266;2023-01-01T00:35:20;12.93;;;4.20;;
4424;SDS011;2225;53.568;13.266;2023-01-01T00:37:47;15.40;;;4.67;;
4424;SDS011;2225;53.568;13.266;2023-01-01T00:40:13;17.20;;;5.27;;
4424;SDS011;2225;53.568;13.266;2023-01-01T00:42:40;14.13;;;3.80;;
4424;SDS011;2225;53.568;13.266;2023-01-01T00:45:07;18.40;;;4.53;;
4424;SDS011;2225;53.568;13.266;2023-01-01T00:47:40;15.13;;;2.90;;
4424;SDS011;2225;53.568;13.266;2023-01-01T00:50:07;16.23;;;3.53;;
4424;SDS011;2225;53.568;13.266;2023-01-01T00:52:34;12.83;;;3.33;;
4424;SDS011;2225;53.568;13.266;2023-01-01T00:55:01;12.33;;;4.03;;
4424;SDS011;2225;53.568;13.266;2023-01-01T00:57:28;14.40;;;4.03;;
4424;SDS011;2225;53.568;13.266;2023-01-01T00:59:55;20.07;;;3.27;;
4424;SDS011;2225;53.568;13.266;2023-01-01T01:02:22;32.17;;;4.70;;
4424;SDS011;2225;53.568;13.266;2023-01-01T01:04:49;14.83;;;3.50;;
4424;SDS011;2225;53.568;13.266;2023-01-01T01:07:16;10.80;;;4.43;;
4424;SDS011;2225;53.568;13.266;2023-01-01T01:09:43;14.87;;;3.60;;
4424;SDS011;2225;53.568;13.266;2023-01-01T01:12:10;15.07;;;3.53;;
4424;SDS011;2225;53.568;13.266;2023-01-01T01:14:44;10.17;;;3.50;;
4424;SDS011;2225;53.568;13.266;2023-01-01T01:17:11;16.47;;;3.90;;
4424;SDS011;2225;53.568;13.266;2023-01-01T01:19:38;15.30;;;3.73;;
4424;SDS011;2225;53.568;13.266;2023-01-01T01:22:05;14.50;;;4.17;;
4424;SDS011;2225;53.568;13.266;2023-01-01T01:24:32;14.17;;;3.83;;
4424;SDS011;2225;53.568;13.266;2023-01-01T01:26:59;14.77;;;4.47;;
4424;SDS011;2225;53.568;13.266;2023-01-01T01:29:26;11.00;;;4.50;;
4424;SDS011;2225;53.568;13.266;2023-01-01T01:31:53;15.83;;;4.00;;
4424;SDS011;2225;53.568;13.266;2023-01-01T01:34:20;11.53;;;4.00;;
4424;SDS011;2225;53.568;13.266;2023-01-01T01:36:53;12.20;;;3.87;;
4424;SDS011;2225;53.568;13.266;2023-01-01T01:39:20;8.83;;;3.63;;
4424;SDS011;2225;53.568;13.266;2023-01-01T01:41:47;11.03;;;3.60;;
4424;SDS011;2225;53.568;13.266;2023-01-01T01:50:13;12.63;;;4.03;;
4424;SDS011;2225;53.568;13.266;2023-01-01T01:52:59;16.70;;;4.90;;
4424;SDS011;2225;53.568;13.266;2023-01-01T01:55:35;11.67;;;4.70;;
4424;SDS011;2225;53.568;13.266;2023-01-01T01:58:06;13.00;;;4.30;;
4424;SDS011;2225;53.568;13.266;2023-01-01T02:00:36;15.43;;;4.47;;
4424;SDS011;2225;53.568;13.266;2023-01-01T02:03:08;15.10;;;4.50;;
4424;SDS011;2225;53.568;13.266;2023-01-01T02:05:48;21.67;;;4.53;;
4424;SDS011;2225;53.568;13.266;2023-01-01T02:08:18;15.33;;;5.30;;
4424;SDS011;2225;53.568;13.266;2023-01-01T02:10:46;20.37;;;5.40;;
4424;SDS011;2225;53.568;13.266;2023-01-01T02:13:13;17.80;;;4.83;;
4424;SDS011;2225;53.568;13.266;2023-01-01T02:18:22;11.90;;;4.80;;
4424;SDS011;2225;53.568;13.266;2023-01-01T02:20:57;11.93;;;4.57;;
4424;SDS011;2225;53.568;13.266;2023-01-01T02:29:06;22.43;;;5.90;;
4424;SDS011;2225;53.568;13.266;2023-01-01T02:31:54;13.90;;;4.97;;
4424;SDS011;2225;53.568;13.266;2023-01-01T02:34:31;19.70;;;5.00;;
4424;SDS011;2225;53.568;13.266;2023-01-01T02:37:07;18.63;;;4.87;;
4424;SDS011;2225;53.568;13.266;2023-01-01T02:39:38;20.03;;;4.97;;
4424;SDS011;2225;53.568;13.266;2023-01-01T02:42:15;13.20;;;5.67;;
4424;SDS011;2225;53.568;13.266;2023-01-01T02:44:43;22.80;;;5.40;;
4424;SDS011;2225;53.568;13.266;2023-01-01T02:47:15;15.90;;;5.17;;
4424;SDS011;2225;53.568;13.266;2023-01-01T02:55:46;21.00;;;5.67;;
4424;SDS011;2225;53.568;13.266;2023-01-01T02:58:38;17.63;;;6.00;;
4424;SDS011;2225;53.568;13.266;2023-01-01T03:01:43;15.80;;;5.50;;
4424;SDS011;2225;53.568;13.266;2023-01-01T03:04:30;31.93;;;5.87;;
4424;SDS011;2225;53.568;13.266;2023-01-01T03:07:15;22.17;;;5.90;;
4424;SDS011;2225;53.568;13.266;2023-01-01T03:10:33;16.90;;;5.23;;
4424;SDS011;2225;53.568;13.266;2023-01-01T03:13:17;18.40;;;6.60;;
4424;SDS011;2225;53.568;13.266;2023-01-01T03:15:56;20.43;;;6.60;;
4424;SDS011;2225;53.568;13.266;2023-01-01T03:18:33;15.20;;;5.53;;
4424;SDS011;2225;53.568;13.266;2023-01-01T03:21:40;24.60;;;5.97;;
4424;SDS011;2225;53.568;13.266;2023-01-01T03:24:22;24.83;;;7.10;;
4424;SDS011;2225;53.568;13.266;2023-01-01T03:27:14;12.70;;;4.97;;
4424;SDS011;2225;53.568;13.266;2023-01-01T03:29:59;14.73;;;6.03;;
4424;SDS011;2225;53.568;13.266;2023-01-01T03:32:37;18.20;;;5.90;;
4424;SDS011;2225;53.568;13.266;2023-01-01T03:35:27;31.03;;;6.50;;
4424;SDS011;2225;53.568;13.266;2023-01-01T03:38:03;29.63;;;6.33;;
4424;SDS011;2225;53.568;13.266;2023-01-01T03:40:39;20.70;;;6.03;;
4424;SDS011;2225;53.568;13.266;2023-01-01T03:43:09;19.00;;;6.37;;
4424;SDS011;2225;53.568;13.266;2023-01-01T03:45:44;17.40;;;5.70;;
4424;SDS011;2225;53.568;13.266;2023-01-01T03:48:15;24.00;;;5.73;;
4424;SDS011;2225;53.568;13.266;2023-01-01T03:50:47;19.60;;;5.50;;
4424;SDS011;2225;53.568;13.266;2023-01-01T03:53:37;18.83;;;5.43;;
4424;SDS011;2225;53.568;13.266;2023-01-01T03:56:11;15.20;;;6.10;;
4424;SDS011;2225;53.568;13.266;2023-01-01T03:58:55;26.50;;;5.80;;
4424;SDS011;2225;53.568;13.266;2023-01-01T04:01:32;22.70;;;6.20;;
4424;SDS011;2225;53.568;13.266;2023-01-01T04:04:06;23.83;;;6.17;;
4424;SDS011;2225;53.568;13.266;2023-01-01T04:06:33;25.10;;;6.00;;
4424;SDS011;2225;53.568;13.266;2023-01-01T04:09:00;16.77;;;5.43;;
4424;SDS011;2225;53.568;13.266;2023-01-01T04:11:30;21.17;;;5.27;;
4424;SDS011;2225;53.568;13.266;2023-01-01T04:14:39;16.33;;;5.30;;
4424;SDS011;2225;53.568;13.266;2023-01-01T04:17:08;17.53;;;5.43;;
4424;SDS011;2225;53.568;13.266;2023-01-01T04:19:37;18.83;;;5.87;;
4424;SDS011;2225;53.568;13.266;2023-01-01T04:22:04;22.03;;;5.63;;
4424;SDS011;2225;53.568;13.266;2023-01-01T04:24:31;17.47;;;5.30;;
4424;SDS011;2225;53.568;13.266;2023-01-01T04:26:58;20.60;;;5.47;;
4424;SDS011;2225;53.568;13.266;2023-01-01T04:29:25;15.80;;;5.37;;
4424;SDS011;2225;53.568;13.266;2023-01-01T04:31:52;19.13;;;5.83;;
4424;SDS011;2225;53.568;13.266;2023-01-01T04:34:19;15.97;;;5.60;;
4424;SDS011;2225;53.568;13.266;2023-01-01T04:36:46;20.47;;;5.63;;
4424;SDS011;2225;53.568;13.266;2023-01-01T04:39:13;29.03;;;5.73;;
4424;SDS011;2225;53.568;13.266;2023-01-01T04:41:40;20.43;;;6.30;;
4424;SDS011;2225;53.568;13.266;2023-01-01T04:44:07;21.47;;;5.50;;
4424;SDS011;2225;53.568;13.266;2023-01-01T04:46:34;20.70;;;5.13;;
4424;SDS011;2225;53.568;13.266;2023-01-01T04:49:01;12.90;;;4.30;;
4424;SDS011;2225;53.568;13.266;2023-01-01T04:51:27;20.67;;;5.10;;
4424;SDS011;2225;53.568;13.266;2023-01-01T04:53:54;31.83;;;6.30;;
4424;SDS011;2225;53.568;13.266;2023-01-01T04:56:22;15.80;;;5.83;;
4424;SDS011;2225;53.568;13.266;2023-01-01T04:58:49;14.00;;;5.27;;
4424;SDS011;2225;53.568;13.266;2023-01-01T05:01:20;16.23;;;5.43;;
4424;SDS011;2225;53.568;13.266;2023-01-01T05:03:51;19.43;;;5.97;;
4424;SDS011;2225;53.568;13.266;2023-01-01T05:06:18;15.20;;;5.70;;
4424;SDS011;2225;53.568;13.266;2023-01-01T05:08:46;17.10;;;5.10;;
4424;SDS011;2225;53.568;13.266;2023-01-01T05:11:16;15.63;;;4.60;;
4424;SDS011;2225;53.568;13.266;2023-01-01T05:13:47;12.43;;;5.27;;
4424;SDS011;2225;53.568;13.266;2023-01-01T05:16:21;18.50;;;5.63;;
4424;SDS011;2225;53.568;13.266;2023-01-01T05:18:50;18.50;;;6.00;;
4424;SDS011;2225;53.568;13.266;2023-01-01T05:21:21;14.17;;;5.23;;
4424;SDS011;2225;53.568;13.266;2023-01-01T05:23:55;18.03;;;5.37;;
4424;SDS011;2225;53.568;13.266;2023-01-01T05:26:25;19.80;;;5.77;;
4424;SDS011;2225;53.568;13.266;2023-01-01T05:28:55;17.67;;;5.40;;
4424;SDS011;2225;53.568;13.266;2023-01-01T05:31:24;15.53;;;5.63;;
4424;SDS011;2225;53.568;13.266;2023-01-01T05:33:54;15.97;;;5.40;;
4424;SDS011;2225;53.568;13.266;2023-01-01T05:36:23;16.23;;;6.70;;
4424;SDS011;2225;53.568;13.266;2023-01-01T05:38:53;31.73;;;5.93;;
4424;SDS011;2225;53.568;13.266;2023-01-01T05:41:20;19.70;;;7.00;;
4424;SDS011;2225;53.568;13.266;2023-01-01T05:43:48;24.27;;;6.43;;
4424;SDS011;2225;53.568;13.266;2023-01-01T05:46:17;20.70;;;6.17;;
4424;SDS011;2225;53.568;13.266;2023-01-01T05:48:47;21.00;;;6.17;;
4424;SDS011;2225;53.568;13.266;2023-01-01T05:51:21;14.13;;;4.93;;
4424;SDS011;2225;53.568;13.266;2023-01-01T05:53:54;12.57;;;4.77;;
4424;SDS011;2225;53.568;13.266;2023-01-01T05:56:23;24.03;;;6.10;;
4424;SDS011;2225;53.568;13.266;2023-01-01T05:58:51;22.33;;;5.67;;
4424;SDS011;2225;53.568;13.266;2023-01-01T06:01:28;16.90;;;5.60;;
4424;SDS011;2225;53.568;13.266;2023-01-01T06:03:57;13.60;;;5.47;;
4424;SDS011;2225;53.568;13.266;2023-01-01T06:06:29;22.60;;;4.97;;
4424;SDS011;2225;53.568;13.266;2023-01-01T06:08:59;17.43;;;4.90;;
4424;SDS011;2225;53.568;13.266;2023-01-01T06:11:29;28.13;;;5.87;;
4424;SDS011;2225;53.568;13.266;2023-01-01T06:13:58;13.00;;;4.70;;
4424;SDS011;2225;53.568;13.266;2023-01-01T06:16:26;22.40;;;5.87;;
4424;SDS011;2225;53.568;13.266;2023-01-01T06:18:55;16.33;;;5.87;;
4424;SDS011;2225;53.568;13.266;2023-01-01T06:21:23;19.60;;;5.60;;
4424;SDS011;2225;53.568;13.266;2023-01-01T06:23:54;33.70;;;5.93;;
4424;SDS011;2225;53.568;13.266;2023-01-01T06:26:31;17.73;;;5.40;;
4424;SDS011;2225;53.568;13.266;2023-01-01T06:28:59;18.03;;;5.20;;
4424;SDS011;2225;53.568;13.266;2023-01-01T06:31:28;17.10;;;4.70;;
4424;SDS011;2225;53.568;13.266;2023-01-01T06:34:03;18.23;;;5.00;;
4424;SDS011;2225;53.568;13.266;2023-01-01T06:36:30;12.93;;;4.33;;
4424;SDS011;2225;53.568;13.266;2023-01-01T06:38:57;16.63;;;5.20;;
4424;SDS011;2225;53.568;13.266;2023-01-01T06:41:25;32.70;;;5.13;;
4424;SDS011;2225;53.568;13.266;2023-01-01T06:43:57;18.73;;;5.63;;
4424;SDS011;2225;53.568;13.266;2023-01-01T06:46:30;15.30;;;4.77;;
4424;SDS011;2225;53.568;13.266;2023-01-01T06:49:03;30.67;;;5.60;;
4424;SDS011;2225;53.568;13.266;2023-01-01T06:51:36;26.93;;;4.87;;
4424;SDS011;2225;53.568;13.266;2023-01-01T06:54:08;14.20;;;4.53;;
4424;SDS011;2225;53.568;13.266;2023-01-01T06:56:36;23.20;;;5.63;;
4424;SDS011;2225;53.568;13.266;2023-01-01T06:59:04;14.87;;;4.77;;
4424;SDS011;2225;53.568;13.266;2023-01-01T07:01:32;29.40;;;5.03;;
4424;SDS011;2225;53.568;13.266;2023-01-01T07:04:04;25.53;;;5.23;;
4424;SDS011;2225;53.568;13.266;2023-01-01T07:06:33;18.40;;;5.43;;
4424;SDS011;2225;53.568;13.266;2023-01-01T07:09:01;17.33;;;4.83;;
4424;SDS011;2225;53.568;13.266;2023-01-01T07:11:29;15.50;;;5.03;;
4424;SDS011;2225;53.568;13.266;2023-01-01T07:13:56;19.87;;;4.80;;
4424;SDS011;2225;53.568;13.266;2023-01-01T07:16:23;19.70;;;5.03;;
4424;SDS011;2225;53.568;13.266;2023-01-01T07:18:51;12.17;;;3.90;;
4424;SDS011;2225;53.568;13.266;2023-01-01T07:21:31;18.13;;;5.13;;
4424;SDS011;2225;53.568;13.266;2023-01-01T07:24:18;20.47;;;4.30;;
4424;SDS011;2225;53.568;13.266;2023-01-01T07:26:45;20.80;;;5.10;;
4424;SDS011;2225;53.568;13.266;2023-01-01T07:29:14;17.43;;;5.90;;
4424;SDS011;2225;53.568;13.266;2023-01-01T07:31:41;22.93;;;4.93;;
4424;SDS011;2225;53.568;13.266;2023-01-01T07:34:16;13.83;;;4.33;;
4424;SDS011;2225;53.568;13.266;2023-01-01T07:36:48;15.60;;;4.30;;
4424;SDS011;2225;53.568;13.266;2023-01-01T07:39:15;12.30;;;4.33;;
4424;SDS011;2225;53.568;13.266;2023-01-01T07:41:42;14.70;;;4.83;;
4424;SDS011;2225;53.568;13.266;2023-01-01T07:44:11;12.50;;;4.33;;
4424;SDS011;2225;53.568;13.266;2023-01-01T07:46:38;16.27;;;4.77;;
4424;SDS011;2225;53.568;13.266;2023-01-01T07:49:05;12.80;;;4.20;;
4424;SDS011;2225;53.568;13.266;2023-01-01T07:51:32;20.30;;;4.43;;
4424;SDS011;2225;53.568;13.266;2023-01-01T07:53:59;15.90;;;5.13;;
4424;SDS011;2225;53.568;13.266;2023-01-01T07:56:33;14.13;;;4.40;;
4424;SDS011;2225;53.568;13.266;2023-01-01T07:59:00;14.33;;;4.40;;
4424;SDS011;2225;53.568;13.266;2023-01-01T08:01:27;13.83;;;4.03;;
4424;SDS011;2225;53.568;13.266;2023-01-01T08:03:54;11.13;;;4.53;;
4424;SDS011;2225;53.568;13.266;2023-01-01T08:06:21;14.73;;;4.67;;
4424;SDS011;2225;53.568;13.266;2023-01-01T08:08:48;12.77;;;5.27;;
4424;SDS011;2225;53.568;13.266;2023-01-01T08:11:15;12.20;;;3.50;;
4424;SDS011;2225;53.568;13.266;2023-01-01T08:13:42;18.87;;;4.97;;
4424;SDS011;2225;53.568;13.266;2023-01-01T08:16:09;13.27;;;4.23;;
4424;SDS011;2225;53.568;13.266;2023-01-01T08:18:36;16.40;;;4.50;;
4424;SDS011;2225;53.568;13.266;2023-01-01T08:21:03;15.43;;;5.00;;
4424;SDS011;2225;53.568;13.266;2023-01-01T08:23:31;13.47;;;3.83;;
4424;SDS011;2225;53.568;13.266;2023-01-01T08:25:58;13.43;;;3.80;;
4424;SDS011;2225;53.568;13.266;2023-01-01T08:28:27;17.50;;;4.83;;
4424;SDS011;2225;53.568;13.266;2023-01-01T08:30:55;8.33;;;3.90;;
4424;SDS011;2225;53.568;13.266;2023-01-01T08:33:23;16.63;;;4.23;;
4424;SDS011;2225;53.568;13.266;2023-01-01T08:35:51;11.87;;;3.90;;
4424;SDS011;2225;53.568;13.266;2023-01-01T08:38:20;11.20;;;4.30;;
4424;SDS011;2225;53.568;13.266;2023-01-01T08:40:47;17.43;;;4.33;;
4424;SDS011;2225;53.568;13.266;2023-01-01T08:43:14;17.03;;;4.63;;
4424;SDS011;2225;53.568;13.266;2023-01-01T08:45:41;11.20;;;3.90;;
4424;SDS011;2225;53.568;13.266;2023-01-01T08:48:08;15.27;;;4.53;;
4424;SDS011;2225;53.568;13.266;2023-01-01T08:50:35;14.50;;;5.10;;
4424;SDS011;2225;53.568;13.266;2023-01-01T08:53:02;17.43;;;4.23;;
4424;SDS011;2225;53.568;13.266;2023-01-01T08:55:29;18.37;;;3.90;;
4424;SDS011;2225;53.568;13.266;2023-01-01T08:57:56;16.93;;;5.00;;
4424;SDS011;2225;53.568;13.266;2023-01-01T09:00:23;10.33;;;3.97;;
4424;SDS011;2225;53.568;13.266;2023-01-01T09:02:50;13.37;;;4.73;;
4424;SDS011;2225;53.568;13.266;2023-01-01T09:05:17;11.80;;;4.10;;
4424;SDS011;2225;53.568;13.266;2023-01-01T09:07:45;19.27;;;4.63;;
4424;SDS011;2225;53.568;13.266;2023-01-01T09:10:12;14.13;;;4.80;;
4424;SDS011;2225;53.568;13.266;2023-01-01T09:12:39;13.00;;;3.80;;
4424;SDS011;2225;53.568;13.266;2023-01-01T09:15:06;16.33;;;5.07;;
4424;SDS011;2225;53.568;13.266;2023-01-01T09:17:40;10.00;;;3.53;;
4424;SDS011;2225;53.568;13.266;2023-01-01T09:20:07;14.20;;;4.37;;
4424;SDS011;2225;53.568;13.266;2023-01-01T09:22:34;11.27;;;3.70;;
4424;SDS011;2225;53.568;13.266;2023-01-01T09:25:01;13.60;;;4.33;;
4424;SDS011;2225;53.568;13.266;2023-01-01T09:27:28;10.10;;;3.97;;
4424;SDS011;2225;53.568;13.266;2023-01-01T09:29:54;15.03;;;4.90;;
4424;SDS011;2225;53.568;13.266;2023-01-01T09:32:21;17.93;;;4.70;;
4424;SDS011;2225;53.568;13.266;2023-01-01T09:34:49;18.00;;;4.40;;
4424;SDS011;2225;53.568;13.266;2023-01-01T09:37:17;17.83;;;4.73;;
4424;SDS011;2225;53.568;13.266;2023-01-01T09:39:44;15.00;;;4.33;;
4424;SDS011;2225;53.568;13.266;2023-01-01T09:47:54;12.27;;;4.20;;
4424;SDS011;2225;53.568;13.266;2023-01-01T09:50:31;9.73;;;4.10;;
4424;SDS011;2225;53.568;13.266;2023-01-01T09:53:05;9.40;;;3.97;;
4424;SDS011;2225;53.568;13.266;2023-01-01T09:56:01;13.20;;;4.10;;
4424;SDS011;2225;53.568;13.266;2023-01-01T09:58:31;22.40;;;4.90;;
4424;SDS011;2225;53.568;13.266;2023-01-01T10:01:04;10.37;;;4.23;;
4424;SDS011;2225;53.568;13.266;2023-01-01T10:04:01;12.10;;;4.83;;
4424;SDS011;2225;53.568;13.266;2023-01-01T10:06:57;15.10;;;4.50;;
4424;SDS011;2225;53.568;13.266;2023-01-01T10:12:41;12.00;;;4.00;;
4424;SDS011;2225;53.568;13.266;2023-01-01T10:15:24;13.20;;;4.63;;
4424;SDS011;2225;53.568;13.266;2023-01-01T10:17:56;9.87;;;3.33;;
4424;SDS011;2225;53.568;13.266;2023-01-01T10:23:37;14.83;;;4.10;;
4424;SDS011;2225;53.568;13.266;2023-01-01T10:26:14;14.07;;;4.37;;
4424;SDS011;2225;53.568;13.266;2023-01-01T10:28:53;14.60;;;4.90;;
4424;SDS011;2225;53.568;13.266;2023-01-01T10:31:32;14.27;;;4.77;;
4424;SDS011;2225;53.568;13.266;2023-01-01T10:34:07;10.40;;;3.60;;
4424;SDS011;2225;53.568;13.266;2023-01-01T10:36:43;9.53;;;3.53;;
4424;SDS011;2225;53.568;13.266;2023-01-01T10:39:13;9.53;;;3.97;;
4424;SDS011;2225;53.568;13.266;2023-01-01T10:41:42;11.17;;;4.37;;
4424;SDS011;2225;53.568;13.266;2023-01-01T10:44:12;8.63;;;3.53;;
4424;SDS011;2225;53.568;13.266;2023-01-01T10:46:45;8.87;;;3.60;;
4424;SDS011;2225;53.568;13.266;2023-01-01T10:49:16;13.30;;;4.00;;
4424;SDS011;2225;53.568;13.266;2023-01-01T10:51:46;10.67;;;3.60;;
4424;SDS011;2225;53.568;13.266;2023-01-01T10:54:24;9.73;;;4.33;;
4424;SDS011;2225;53.568;13.266;2023-01-01T10:57:13;12.23;;;3.50;;
4424;SDS011;2225;53.568;13.266;2023-01-01T10:59:46;17.30;;;4.00;;
4424;SDS011;2225;53.568;13.266;2023-01-01T11:04:50;8.13;;;3.70;;
4424;SDS011;2225;53.568;13.266;2023-01-01T11:07:29;14.00;;;4.23;;
4424;SDS011;2225;53.568;13.266;2023-01-01T11:10:00;9.80;;;4.20;;
4424;SDS011;2225;53.568;13.266;2023-01-01T11:12:33;16.47;;;3.50;;
4424;SDS011;2225;53.568;13.266;2023-01-01T11:15:23;8.60;;;3.20;;
4424;SDS011;2225;53.568;13.266;2023-01-01T11:18:04;10.10;;;3.30;;
4424;SDS011;2225;53.568;13.266;2023-01-01T11:20:37;10.20;;;3.93;;
4424;SDS011;2225;53.568;13.266;2023-01-01T11:28:31;16.93;;;3.50;;
4424;SDS011;2225;53.568;13.266;2023-01-01T11:31:10;11.23;;;3.50;;
4424;SDS011;2225;53.568;13.266;2023-01-01T11:36:24;9.67;;;3.10;;
4424;SDS011;2225;53.568;13.266;2023-01-01T11:39:05;9.83;;;3.50;;
4424;SDS011;2225;53.568;13.266;2023-01-01T11:41:49;11.70;;;3.33;;
4424;SDS011;2225;53.568;13.266;2023-01-01T11:44:52;7.73;;;3.10;;
4424;SDS011;2225;53.568;13.266;2023-01-01T11:47:30;12.23;;;3.10;;
4424;SDS011;2225;53.568;13.266;2023-01-01T11:52:45;16.03;;;3.43;;
4424;SDS011;2225;53.568;13.266;2023-01-01T11:55:23;18.70;;;3.27;;
4424;SDS011;2225;53.568;13.266;2023-01-01T11:58:13;12.17;;;3.90;;
4424;SDS011;2225;53.568;13.266;2023-01-01T12:00:58;22.70;;;3.50;;
4424;SDS011;2225;53.568;13.266;2023-01-01T12:03:37;9.47;;;3.23;;
4424;SDS011;2225;53.568;13.266;2023-01-01T12:06:26;12.50;;;3.20;;
4424;SDS011;2225;53.568;13.266;2023-01-01T12:09:36;14.20;;;3.50;;
4424;SDS011;2225;53.568;13.266;2023-01-01T12:12:26;9.57;;;3.10;;
4424;SDS011;2225;53.568;13.266;2023-01-01T12:15:21;10.83;;;3.07;;
4424;SDS011;2225;53.568;13.266;2023-01-01T12:17:57;12.17;;;3.33;;
4424;SDS011;2225;53.568;13.266;2023-01-01T12:21:00;13.37;;;3.87;;
4424;SDS011;2225;53.568;13.266;2023-01-01T12:23:33;10.00;;;4.47;;
4424;SDS011;2225;53.568;13.266;2023-01-01T12:26:08;9.87;;;3.43;;
4424;SDS011;2225;53.568;13.266;2023-01-01T12:28:52;13.40;;;3.57;;
4424;SDS011;2225;53.568;13.266;2023-01-01T12:31:43;12.47;;;2.93;;
4424;SDS011;2225;53.568;13.266;2023-01-01T12:37:26;10.70;;;4.23;;
4424;SDS011;2225;53.568;13.266;2023-01-01T12:40:41;17.80;;;3.33;;
4424;SDS011;2225;53.568;13.266;2023-01-01T12:43:26;13.37;;;3.20;;
4424;SDS011;2225;53.568;13.266;2023-01-01T12:49:23;10.77;;;3.77;;
4424;SDS011;2225;53.568;13.266;2023-01-01T12:52:29;11.00;;;3.17;;
4424;SDS011;2225;53.568;13.266;2023-01-01T12:58:30;6.27;;;2.33;;
4424;SDS011;2225;53.568;13.266;2023-01-01T13:01:17;9.47;;;2.60;;
4424;SDS011;2225;53.568;13.266;2023-01-01T13:03:49;11.90;;;2.90;;
4424;SDS011;2225;53.568;13.266;2023-01-01T13:09:10;8.73;;;3.40;;
4424;SDS011;2225;53.568;13.266;2023-01-01T13:11:41;7.63;;;2.40;;
4424;SDS011;2225;53.568;13.266;2023-01-01T13:14:11;9.30;;;2.57;;
4424;SDS011;2225;53.568;13.266;2023-01-01T13:16:38;10.00;;;2.63;;
4424;SDS011;2225;53.568;13.266;2023-01-01T13:19:23;6.33;;;2.23;;
4424;SDS011;2225;53.568;13.266;2023-01-01T13:21:59;19.33;;;3.10;;
4424;SDS011;2225;53.568;13.266;2023-01-01T13:25:02;10.13;;;2.77;;
4424;SDS011;2225;53.568;13.266;2023-01-01T13:49:31;6.30;;;2.27;;
4424;SDS011;2225;53.568;13.266;2023-01-01T13:52:31;7.43;;;2.37;;
4424;SDS011;2225;53.568;13.266;2023-01-01T14:03:42;6.27;;;1.77;;
4424;SDS011;2225;53.568;13.266;2023-01-01T14:06:15;9.33;;;2.00;;
4424;SDS011;2225;53.568;13.266;2023-01-01T14:09:06;6.23;;;2.13;;
4424;SDS011;2225;53.568;13.266;2023-01-01T14:11:42;7.30;;;2.33;;
4424;SDS011;2225;53.568;13.266;2023-01-01T14:14:21;7.80;;;1.60;;
4424;SDS011;2225;53.568;13.266;2023-01-01T14:16:50;5.97;;;1.87;;
4424;SDS011;2225;53.568;13.266;2023-01-01T14:19:19;8.90;;;2.20;;
4424;SDS011;2225;53.568;13.266;2023-01-01T14:21:46;18.57;;;1.87;;
4424;SDS011;2225;53.568;13.266;2023-01-01T14:24:14;9.30;;;2.10;;
4424;SDS011;2225;53.568;13.266;2023-01-01T14:26:43;7.33;;;1.63;;
4424;SDS011;2225;53.568;13.266;2023-01-01T14:29:18;11.67;;;3.00;;
4424;SDS011;2225;53.568;13.266;2023-01-01T14:31:52;7.43;;;2.13;;
4424;SDS011;2225;53.568;13.266;2023-01-01T14:34:27;10.10;;;2.00;;
4424;SDS011;2225;53.568;13.266;2023-01-01T14:37:02;11.00;;;1.80;;
4424;SDS011;2225;53.568;13.266;2023-01-01T14:39:33;7.67;;;1.90;;
4424;SDS011;2225;53.568;13.266;2023-01-01T14:42:02;8.03;;;1.70;;
4424;SDS011;2225;53.568;13.266;2023-01-01T14:44:45;9.33;;;2.20;;
4424;SDS011;2225;53.568;13.266;2023-01-01T14:47:23;8.77;;;2.40;;
4424;SDS011;2225;53.568;13.266;2023-01-01T14:49:56;6.90;;;2.10;;
4424;SDS011;2225;53.568;13.266;2023-01-01T14:52:29;7.63;;;1.93;;
4424;SDS011;2225;53.568;13.266;2023-01-01T14:54:59;17.00;;;2.47;;
4424;SDS011;2225;53.568;13.266;2023-01-01T14:57:31;11.07;;;2.00;;
4424;SDS011;2225;53.568;13.266;2023-01-01T15:00:02;7.20;;;1.90;;
4424;SDS011;2225;53.568;13.266;2023-01-01T15:02:45;16.00;;;2.83;;
4424;SDS011;2225;53.568;13.266;2023-01-01T15:07:55;9.83;;;2.27;;
4424;SDS011;2225;53.568;13.266;2023-01-01T15:10:27;10.07;;;1.83;;
4424;SDS011;2225;53.568;13.266;2023-01-01T15:12:56;8.17;;;1.70;;
4424;SDS011;2225;53.568;13.266;2023-01-01T15:15:34;8.90;;;1.80;;
4424;SDS011;2225;53.568;13.266;2023-01-01T15:21:48;10.00;;;2.10;;
4424;SDS011;2225;53.568;13.266;2023-01-01T15:29:22;7.77;;;1.93;;
4424;SDS011;2225;53.568;13.266;2023-01-01T15:32:08;9.00;;;1.80;;
4424;SDS011;2225;53.568;13.266;2023-01-01T15:34:57;8.63;;;2.13;;
4424;SDS011;2225;53.568;13.266;2023-01-01T15:37:41;11.77;;;1.80;;
4424;SDS011;2225;53.568;13.266;2023-01-01T15:42:39;8.30;;;1.90;;
4424;SDS011;2225;53.568;13.266;2023-01-01T15:45:33;9.97;;;1.33;;
4424;SDS011;2225;53.568;13.266;2023-01-01T15:51:03;12.17;;;2.60;;
4424;SDS011;2225;53.568;13.266;2023-01-01T15:53:44;6.90;;;2.97;;
4424;SDS011;2225;53.568;13.266;2023-01-01T15:56:20;10.00;;;3.50;;
4424;SDS011;2225;53.568;13.266;2023-01-01T15:58:54;6.93;;;2.40;;
4424;SDS011;2225;53.568;13.266;2023-01-01T16:01:35;8.67;;;2.23;;
4424;SDS011;2225;53.568;13.266;2023-01-01T16:04:15;8.43;;;2.07;;
4424;SDS011;2225;53.568;13.266;2023-01-01T16:06:54;6.50;;;1.63;;
4424;SDS011;2225;53.568;13.266;2023-01-01T16:09:23;8.93;;;2.77;;
4424;SDS011;2225;53.568;13.266;2023-01-01T16:11:51;6.73;;;2.40;;
4424;SDS011;2225;53.568;13.266;2023-01-01T16:14:20;9.53;;;3.23;;
4424;SDS011;2225;53.568;13.266;2023-01-01T16:16:49;8.03;;;2.23;;
4424;SDS011;2225;53.568;13.266;2023-01-01T16:19:22;8.57;;;2.60;;
4424;SDS011;2225;53.568;13.266;2023-01-01T16:21:49;7.57;;;2.53;;
4424;SDS011;2225;53.568;13.266;2023-01-01T16:24:17;9.20;;;2.27;;
4424;SDS011;2225;53.568;13.266;2023-01-01T16:26:45;9.20;;;2.40;;
4424;SDS011;2225;53.568;13.266;2023-01-01T16:29:13;8.27;;;2.03;;
4424;SDS011;2225;53.568;13.266;2023-01-01T16:31:40;10.80;;;2.23;;
4424;SDS011;2225;53.568;13.266;2023-01-01T16:34:14;9.50;;;2.30;;
4424;SDS011;2225;53.568;13.266;2023-01-01T16:36:41;13.17;;;3.60;;
4424;SDS011;2225;53.568;13.266;2023-01-01T16:39:10;8.00;;;2.30;;
4424;SDS011;2225;53.568;13.266;2023-01-01T16:41:40;9.73;;;2.10;;
4424;SDS011;2225;53.568;13.266;2023-01-01T16:44:11;7.60;;;2.00;;
4424;SDS011;2225;53.568;13.266;2023-01-01T16:46:41;7.93;;;2.60;;
4424;SDS011;2225;53.568;13.266;2023-01-01T16:49:08;8.17;;;2.60;;
4424;SDS011;2225;53.568;13.266;2023-01-01T16:51:35;9.13;;;3.10;;
4424;SDS011;2225;53.568;13.266;2023-01-01T16:54:08;12.87;;;4.30;;
4424;SDS011;2225;53.568;13.266;2023-01-01T16:56:35;9.73;;;3.93;;
4424;SDS011;2225;53.568;13.266;2023-01-01T16:59:02;11.30;;;2.37;;
4424;SDS011;2225;53.568;13.266;2023-01-01T17:01:29;9.53;;;3.57;;
4424;SDS011;2225;53.568;13.266;2023-01-01T17:03:57;7.87;;;2.87;;
4424;SDS011;2225;53.568;13.266;2023-01-01T17:06:24;8.57;;;2.50;;
4424;SDS011;2225;53.568;13.266;2023-01-01T17:08:51;7.73;;;2.43;;
4424;SDS011;2225;53.568;13.266;2023-01-01T17:11:18;10.53;;;2.80;;
4424;SDS011;2225;53.568;13.266;2023-01-01T17:13:47;16.10;;;2.70;;